ESFO2: Salt Fork Red River nr Elmer, OK

Data processed at Sun Apr 30 2017 22:11


All information presented herein is the property of the government of the United States of America and may be revised or deleted at any time without prior notice.
Dissemination of this information without the expressed written consent of the Public Affairs Office, Tulsa District U.S. Army Corps of Engineers is strictly prohibited.
These data are gathered electronically and, as presented, have not undergone any form of quality control. These data are not guaranteed to be valid or correct.
Go to home page.
Go to station list.
Go to station map.

Upstream stations:

Downstream station:
Previous Day
Next Day
Current Day
    
SHEF ID:       ESFO2     Salt Fork Red River near Elmer,
STATION TYPE:  

                STAGE  RIV-FLOW  BAT-LOAD
                   ft       cfs      volt
              Ccp-Rev   Ccp-Rev   Ccp-Rev
(US/Central)
04/30 00:00      9.01       554     12.33
04/30 01:00      9.10       584     12.33
04/30 02:00      9.16       606     12.33
04/30 03:00      9.24       636     12.33
04/30 04:00      9.35       681     12.33
04/30 05:00      9.46       723     12.33
04/30 06:00      9.56       768     12.33
04/30 07:00      9.68       817     12.33
04/30 08:00      9.82       881     12.25
04/30 09:00      9.93       935     12.33
04/30 10:00     10.01       973     12.81
04/30 11:00     10.08      1008     13.29
04/30 12:00     10.19      1067     13.13
04/30 13:00     10.27      1108     13.13
04/30 14:00     10.26      1104     13.05
04/30 15:00     10.34      1146     12.97
04/30 16:00     10.36      1156     12.81
04/30 17:00     10.37      1161     12.73
04/30 18:00     10.46      1209     12.65
04/30 19:00     10.50      1234     12.65
04/30 20:00     10.55      1264     12.65
04/30 21:00     10.67      1331     12.57
04/30 22:00     10.64      ----     12.49
04/30 23:00      ----      ----      ----